Time;durP1;ratioP1;P1;durP2;ratioP2;P2;SDS_P1;SDS_P2;PMS_P1;PMS_P2;Temp;Humidity;BMP_temperature;BMP_pressure;BME280_temperature;BME280_humidity;BME280_pressure;Samples;Min_cycle;Max_cycle;Signal;HPM_P1;HPM_P2
2022/08/15 00:00:55;;;;;;;7.90;4.80;;;;;;;;;;4406955;32;20225;-84
2022/08/15 00:03:32;;;;;;;6.80;4.95;;;;;;;;;;4405919;32;20256;-83
2022/08/15 00:06:02;;;;;;;7.72;4.50;;;;;;;;;;4405253;32;20324;-84
2022/08/15 00:08:30;;;;;;;5.50;4.30;;;;;;;;;;4405693;32;20304;-83
2022/08/15 00:11:03;;;;;;;5.18;4.68;;;;;;;;;;4392413;32;20238;-83
2022/08/15 00:13:29;;;;;;;5.03;4.12;;;;;;;;;;4404646;32;20374;-82
2022/08/15 00:15:55;;;;;;;4.55;4.15;;;;;;;;;;4404713;32;20302;-83
2022/08/15 00:18:25;;;;;;;6.60;4.43;;;;;;;;;;4405842;32;20649;-84
2022/08/15 00:20:51;;;;;;;5.62;4.65;;;;;;;;;;4404176;32;20267;-85
2022/08/15 00:23:22;;;;;;;7.35;4.30;;;;;;;;;;4405546;32;20264;-85
2022/08/15 00:25:49;;;;;;;4.93;4.12;;;;;;;;;;4405055;32;20316;-83
2022/08/15 00:28:15;;;;;;;8.20;5.05;;;;;;;;;;4401787;32;20371;-83
2022/08/15 00:30:43;;;;;;;3.87;3.50;;;;;;;;;;4390733;32;20608;-83
2022/08/15 00:33:11;;;;;;;9.98;4.47;;;;;;;;;;4390628;32;20215;-84
2022/08/15 00:35:40;;;;;;;5.78;4.22;;;;;;;;;;4385920;32;20272;-84
2022/08/15 00:38:09;;;;;;;4.57;3.92;;;;;;;;;;4387919;32;20214;-84
2022/08/15 00:43:20;;;;;;;4.00;3.60;;;;;;;;;;4388278;32;20221;-84
2022/08/15 00:45:48;;;;;;;4.12;3.72;;;;;;;;;;4387299;32;20265;-84
2022/08/15 00:51:03;;;;;;;12.25;4.40;;;;;;;;;;4389188;32;20788;-84
2022/08/15 00:53:29;;;;;;;9.77;4.22;;;;;;;;;;4388841;32;20222;-84
2022/08/15 00:55:56;;;;;;;5.55;4.20;;;;;;;;;;4389274;32;20264;-83
2022/08/15 00:58:25;;;;;;;7.65;4.78;;;;;;;;;;4388960;32;20225;-84
2022/08/15 01:00:51;;;;;;;8.63;4.12;;;;;;;;;;4388654;32;20322;-84
2022/08/15 01:03:26;;;;;;;5.95;4.28;;;;;;;;;;4389018;32;20623;-84
2022/08/15 01:05:59;;;;;;;5.03;4.18;;;;;;;;;;4388203;32;20232;-84
2022/08/15 01:08:30;;;;;;;4.95;4.35;;;;;;;;;;4388371;32;20202;-84
2022/08/15 01:10:57;;;;;;;9.10;4.55;;;;;;;;;;4400792;32;20229;-84
2022/08/15 01:13:24;;;;;;;5.28;4.45;;;;;;;;;;4403749;32;20242;-83
2022/08/15 01:15:52;;;;;;;9.35;4.90;;;;;;;;;;4403737;32;20245;-83
2022/08/15 01:18:17;;;;;;;11.00;4.30;;;;;;;;;;4402777;32;21004;-83
2022/08/15 01:20:44;;;;;;;12.88;4.87;;;;;;;;;;4402827;32;20359;-83
2022/08/15 01:23:12;;;;;;;16.70;5.05;;;;;;;;;;4389164;32;20297;-83
2022/08/15 01:25:44;;;;;;;6.40;3.78;;;;;;;;;;4403290;32;20347;-84
2022/08/15 01:28:25;;;;;;;5.10;4.60;;;;;;;;;;4405718;32;20536;-83
2022/08/15 01:30:58;;;;;;;10.75;4.40;;;;;;;;;;4402650;32;20290;-84
2022/08/15 01:33:26;;;;;;;9.30;4.62;;;;;;;;;;4402606;32;20229;-83
2022/08/15 01:35:54;;;;;;;5.25;4.53;;;;;;;;;;4401894;32;20302;-84
2022/08/15 01:38:35;;;;;;;7.78;4.40;;;;;;;;;;4402287;32;20274;-84
2022/08/15 01:41:04;;;;;;;7.30;4.78;;;;;;;;;;4402262;32;20397;-84
2022/08/15 01:43:39;;;;;;;11.50;5.12;;;;;;;;;;4402307;32;20238;-84
2022/08/15 01:46:07;;;;;;;18.02;10.70;;;;;;;;;;4401073;32;20257;-83
2022/08/15 01:48:45;;;;;;;14.98;10.45;;;;;;;;;;4402668;32;20257;-84
2022/08/15 01:51:14;;;;;;;19.87;8.88;;;;;;;;;;4401359;32;20229;-83
2022/08/15 01:54:07;;;;;;;11.75;6.65;;;;;;;;;;4400779;32;20261;-83
2022/08/15 01:56:37;;;;;;;5.70;5.10;;;;;;;;;;4400024;32;20229;-83
2022/08/15 01:59:05;;;;;;;7.03;5.85;;;;;;;;;;4401901;32;20217;-83
2022/08/15 02:01:45;;;;;;;14.38;5.57;;;;;;;;;;4401138;32;20312;-83
2022/08/15 02:04:13;;;;;;;8.75;5.43;;;;;;;;;;4402039;32;20224;-83
2022/08/15 02:06:41;;;;;;;6.28;4.90;;;;;;;;;;4401764;32;20210;-84
2022/08/15 02:09:08;;;;;;;8.88;5.57;;;;;;;;;;4401951;32;20744;-83
2022/08/15 02:11:35;;;;;;;9.40;5.00;;;;;;;;;;4401440;32;20244;-82
2022/08/15 02:14:01;;;;;;;8.00;5.37;;;;;;;;;;4401555;32;20218;-82
2022/08/15 02:16:30;;;;;;;8.90;5.18;;;;;;;;;;4393459;32;20225;-82
2022/08/15 02:18:57;;;;;;;7.40;5.65;;;;;;;;;;4386014;32;20566;-83
2022/08/15 02:21:23;;;;;;;9.38;4.85;;;;;;;;;;4392581;32;20301;-83
2022/08/15 02:23:49;;;;;;;6.60;4.37;;;;;;;;;;4401474;32;20237;-82
2022/08/15 02:26:17;;;;;;;4.95;3.72;;;;;;;;;;4401647;32;20329;-83
2022/08/15 02:28:43;;;;;;;9.32;5.00;;;;;;;;;;4401365;32;20281;-82
2022/08/15 02:31:15;;;;;;;6.07;5.43;;;;;;;;;;4400544;32;20214;-82
2022/08/15 02:33:49;;;;;;;14.68;5.22;;;;;;;;;;4401874;32;20298;-82
2022/08/15 02:36:18;;;;;;;4.55;4.15;;;;;;;;;;4401049;32;20253;-83
2022/08/15 02:38:49;;;;;;;7.18;4.07;;;;;;;;;;4400454;32;20233;-82
2022/08/15 02:41:20;;;;;;;8.57;4.97;;;;;;;;;;4400116;32;20236;-82
2022/08/15 02:43:48;;;;;;;7.90;4.65;;;;;;;;;;4401858;32;20296;-83
2022/08/15 02:46:16;;;;;;;14.82;5.07;;;;;;;;;;4400280;32;20256;-83
2022/08/15 02:48:44;;;;;;;6.28;5.03;;;;;;;;;;4401767;32;20270;-83
2022/08/15 02:51:12;;;;;;;6.30;4.97;;;;;;;;;;4399614;32;20236;-82
2022/08/15 02:53:37;;;;;;;13.13;5.57;;;;;;;;;;4401053;32;20312;-82
2022/08/15 02:56:06;;;;;;;10.48;5.78;;;;;;;;;;4400017;32;20236;-82
2022/08/15 02:58:35;;;;;;;18.05;4.90;;;;;;;;;;4399573;32;20249;-83
2022/08/15 03:01:05;;;;;;;13.55;6.07;;;;;;;;;;4401493;32;20209;-83
2022/08/15 03:03:31;;;;;;;6.00;5.25;;;;;;;;;;4401539;32;20597;-83
2022/08/15 03:05:58;;;;;;;8.77;5.47;;;;;;;;;;4387262;32;20261;-83
2022/08/15 03:08:24;;;;;;;11.32;4.82;;;;;;;;;;4401299;32;20336;-83
2022/08/15 03:10:51;;;;;;;9.90;5.40;;;;;;;;;;4401628;32;20232;-82
2022/08/15 03:13:17;;;;;;;9.90;5.12;;;;;;;;;;4400642;32;20435;-82
2022/08/15 03:15:56;;;;;;;7.35;5.10;;;;;;;;;;4400998;32;20676;-82
2022/08/15 03:18:24;;;;;;;8.70;5.12;;;;;;;;;;4401694;32;20795;-82
2022/08/15 03:20:51;;;;;;;11.38;5.37;;;;;;;;;;4401266;32;20300;-83
2022/08/15 03:23:19;;;;;;;9.65;5.35;;;;;;;;;;4400679;32;20375;-83
2022/08/15 03:25:51;;;;;;;8.00;4.65;;;;;;;;;;4400604;32;20661;-83
2022/08/15 03:28:18;;;;;;;14.35;5.15;;;;;;;;;;4400575;32;20332;-82
2022/08/15 03:30:44;;;;;;;8.35;5.28;;;;;;;;;;4400890;32;20205;-83
2022/08/15 03:33:11;;;;;;;9.27;5.78;;;;;;;;;;4401050;32;20286;-82
2022/08/15 03:35:42;;;;;;;10.57;5.97;;;;;;;;;;4400952;32;20631;-83
2022/08/15 03:38:07;;;;;;;6.43;5.25;;;;;;;;;;4401096;32;20268;-83
2022/08/15 03:40:34;;;;;;;8.13;4.68;;;;;;;;;;4400819;32;20571;-84
2022/08/15 03:43:05;;;;;;;6.65;5.37;;;;;;;;;;4399422;32;20302;-83
2022/08/15 03:45:33;;;;;;;10.30;5.53;;;;;;;;;;4400018;32;20332;-83
2022/08/15 03:48:01;;;;;;;9.68;6.00;;;;;;;;;;4400905;32;20335;-83
2022/08/15 03:50:26;;;;;;;11.75;5.47;;;;;;;;;;4400696;32;20351;-83
2022/08/15 03:52:58;;;;;;;10.63;5.75;;;;;;;;;;4400791;32;20803;-83
2022/08/15 03:55:26;;;;;;;12.93;5.87;;;;;;;;;;4400888;32;20352;-82
2022/08/15 03:57:52;;;;;;;12.77;5.32;;;;;;;;;;4400592;32;20208;-83
2022/08/15 04:00:21;;;;;;;6.57;5.87;;;;;;;;;;4400960;32;20378;-83
2022/08/15 04:02:46;;;;;;;7.22;5.68;;;;;;;;;;4400876;32;20282;-82
2022/08/15 04:05:12;;;;;;;7.03;5.85;;;;;;;;;;4400674;32;20693;-84
2022/08/15 04:07:38;;;;;;;8.60;5.28;;;;;;;;;;4400921;32;20288;-83
2022/08/15 04:10:14;;;;;;;22.62;7.97;;;;;;;;;;4401783;32;20410;-82
2022/08/15 04:12:41;;;;;;;7.25;5.45;;;;;;;;;;4403325;32;20391;-82
2022/08/15 04:15:10;;;;;;;6.20;5.15;;;;;;;;;;4403773;32;20268;-83
2022/08/15 04:17:37;;;;;;;16.80;6.40;;;;;;;;;;4388590;32;20271;-82
2022/08/15 04:20:03;;;;;;;8.95;5.62;;;;;;;;;;4388325;32;20472;-85
2022/08/15 04:22:36;;;;;;;8.00;5.53;;;;;;;;;;4401745;32;20762;-84
2022/08/15 04:25:09;;;;;;;8.23;5.45;;;;;;;;;;4402251;32;20260;-83
2022/08/15 04:27:35;;;;;;;11.20;6.20;;;;;;;;;;4401896;32;20285;-83
2022/08/15 04:30:01;;;;;;;17.45;5.43;;;;;;;;;;4403124;32;20658;-83
2022/08/15 04:32:27;;;;;;;22.62;6.50;;;;;;;;;;4403398;32;20564;-84
2022/08/15 04:34:54;;;;;;;11.70;7.60;;;;;;;;;;4403265;32;20255;-82
2022/08/15 04:37:22;;;;;;;13.73;7.87;;;;;;;;;;4403153;32;20253;-83
2022/08/15 04:39:50;;;;;;;11.27;7.57;;;;;;;;;;4403217;32;20239;-83
2022/08/15 04:42:19;;;;;;;17.90;8.65;;;;;;;;;;4403076;32;20290;-83
2022/08/15 04:44:45;;;;;;;15.68;8.05;;;;;;;;;;4401907;32;20268;-83
2022/08/15 04:47:13;;;;;;;9.40;8.50;;;;;;;;;;4402876;32;20666;-83
2022/08/15 04:49:38;;;;;;;9.15;7.18;;;;;;;;;;4376746;32;20348;-83
2022/08/15 04:52:23;;;;;;;8.70;6.55;;;;;;;;;;4402818;32;20284;-82
2022/08/15 04:54:49;;;;;;;8.23;5.65;;;;;;;;;;4401833;32;20248;-82
2022/08/15 04:57:15;;;;;;;9.95;6.57;;;;;;;;;;4402999;32;20261;-83
2022/08/15 04:59:41;;;;;;;10.32;6.12;;;;;;;;;;4402043;32;20209;-84
2022/08/15 05:02:10;;;;;;;11.82;6.18;;;;;;;;;;4403095;32;20301;-83
2022/08/15 05:04:37;;;;;;;9.27;7.60;;;;;;;;;;4402816;32;20247;-83
2022/08/15 05:07:03;;;;;;;14.40;7.32;;;;;;;;;;4402352;32;20670;-84
2022/08/15 05:09:29;;;;;;;7.32;5.82;;;;;;;;;;4403157;32;20209;-83
2022/08/15 05:11:56;;;;;;;9.18;7.53;;;;;;;;;;4402250;32;20233;-81
2022/08/15 05:14:23;;;;;;;12.90;5.93;;;;;;;;;;4402058;32;20842;-82
2022/08/15 05:16:48;;;;;;;8.35;6.25;;;;;;;;;;4392119;32;20331;-82
2022/08/15 05:19:14;;;;;;;14.63;8.07;;;;;;;;;;4387213;32;20554;-81
2022/08/15 05:21:40;;;;;;;10.02;6.85;;;;;;;;;;4393589;32;20268;-81
2022/08/15 05:24:07;;;;;;;8.27;7.00;;;;;;;;;;4401167;32;20322;-81
2022/08/15 05:26:34;;;;;;;47.45;11.55;;;;;;;;;;4401199;32;20544;-80
2022/08/15 05:28:59;;;;;;;40.85;13.05;;;;;;;;;;4401327;32;20218;-80
2022/08/15 05:31:26;;;;;;;28.27;9.25;;;;;;;;;;4399874;32;20299;-81
2022/08/15 05:33:53;;;;;;;15.55;7.80;;;;;;;;;;4400059;32;20272;-82
2022/08/15 05:36:19;;;;;;;30.08;9.73;;;;;;;;;;4400560;32;20361;-81
2022/08/15 05:38:52;;;;;;;81.05;21.05;;;;;;;;;;4399316;32;20226;-81
2022/08/15 05:41:33;;;;;;;41.22;14.48;;;;;;;;;;4400187;32;20385;-81
2022/08/15 05:44:00;;;;;;;49.55;15.88;;;;;;;;;;4401138;32;20232;-80
2022/08/15 05:47:06;;;;;;;28.98;13.95;;;;;;;;;;4401705;32;20673;-81
2022/08/15 05:49:40;;;;;;;25.30;11.48;;;;;;;;;;4401715;32;20345;-81
2022/08/15 05:52:24;;;;;;;36.65;11.65;;;;;;;;;;4402052;32;20264;-80
2022/08/15 05:55:09;;;;;;;25.08;11.55;;;;;;;;;;4402009;32;20284;-81
2022/08/15 05:57:43;;;;;;;12.05;7.93;;;;;;;;;;4401603;32;20333;-81
2022/08/15 06:00:12;;;;;;;15.38;8.13;;;;;;;;;;4399597;32;20277;-78
2022/08/15 06:02:45;;;;;;;10.13;8.40;;;;;;;;;;4395004;32;20679;-81
2022/08/15 06:05:20;;;;;;;8.40;7.53;;;;;;;;;;4401206;32;20681;-81
2022/08/15 06:07:52;;;;;;;16.30;8.43;;;;;;;;;;4401788;32;20189;-81
2022/08/15 06:10:25;;;;;;;9.40;8.05;;;;;;;;;;4401635;32;20291;-80
2022/08/15 06:12:59;;;;;;;18.87;10.13;;;;;;;;;;4389092;32;20539;-81
2022/08/15 06:15:36;;;;;;;13.32;9.90;;;;;;;;;;4401483;32;20236;-81
2022/08/15 06:18:07;;;;;;;12.07;9.05;;;;;;;;;;4394127;32;20252;-81
2022/08/15 06:21:00;;;;;;;9.43;8.27;;;;;;;;;;4401197;32;20230;-82
2022/08/15 06:24:13;;;;;;;12.60;8.52;;;;;;;;;;4401512;32;20217;-81
2022/08/15 06:27:06;;;;;;;15.63;7.85;;;;;;;;;;4401346;32;20229;-81
2022/08/15 06:29:43;;;;;;;8.10;7.15;;;;;;;;;;4401529;32;20224;-81
2022/08/15 06:32:19;;;;;;;14.90;9.27;;;;;;;;;;4401538;32;20205;-81
2022/08/15 06:35:07;;;;;;;23.05;8.73;;;;;;;;;;4401439;32;20209;-81
2022/08/15 06:38:10;;;;;;;11.18;7.55;;;;;;;;;;4401521;32;20234;-81
2022/08/15 06:40:57;;;;;;;14.35;8.13;;;;;;;;;;4401396;32;20303;-83
2022/08/15 06:43:23;;;;;;;18.15;8.95;;;;;;;;;;4401400;32;20281;-82
2022/08/15 06:45:54;;;;;;;11.00;7.35;;;;;;;;;;4398923;32;20583;-81
2022/08/15 06:48:29;;;;;;;14.07;8.80;;;;;;;;;;4400279;32;20210;-82
2022/08/15 06:51:00;;;;;;;13.32;8.82;;;;;;;;;;4401047;32;20228;-83
2022/08/15 06:53:53;;;;;;;9.52;7.50;;;;;;;;;;4399522;32;20668;-82
2022/08/15 06:56:28;;;;;;;14.05;8.82;;;;;;;;;;4394244;32;20248;-82
2022/08/15 06:59:13;;;;;;;14.50;8.43;;;;;;;;;;4400642;32;20209;-82
2022/08/15 07:01:53;;;;;;;10.98;8.73;;;;;;;;;;4400770;32;20330;-82
2022/08/15 07:04:43;;;;;;;10.48;8.73;;;;;;;;;;4399572;32;20437;-82
2022/08/15 07:07:32;;;;;;;10.73;9.18;;;;;;;;;;4398014;32;20241;-82
2022/08/15 07:10:16;;;;;;;11.63;9.27;;;;;;;;;;4385533;32;20286;-80
2022/08/15 07:12:47;;;;;;;16.10;10.15;;;;;;;;;;4385673;32;20295;-83
2022/08/15 07:15:40;;;;;;;13.43;8.48;;;;;;;;;;4400700;32;20256;-85
2022/08/15 07:18:17;;;;;;;11.48;8.88;;;;;;;;;;4401246;32;20246;-84
2022/08/15 07:20:42;;;;;;;8.15;6.95;;;;;;;;;;4400284;32;20260;-84
2022/08/15 07:23:16;;;;;;;12.85;7.07;;;;;;;;;;4401320;32;20771;-85
2022/08/15 07:25:47;;;;;;;16.62;7.35;;;;;;;;;;4400830;32;20197;-80
2022/08/15 07:28:16;;;;;;;11.40;7.32;;;;;;;;;;4400871;32;20276;-81
2022/08/15 07:30:47;;;;;;;10.57;7.95;;;;;;;;;;4400753;32;20206;-80
2022/08/15 07:33:30;;;;;;;8.70;7.03;;;;;;;;;;4400484;32;20212;-84
2022/08/15 07:36:19;;;;;;;8.23;6.70;;;;;;;;;;4400856;32;20220;-81
2022/08/15 07:38:46;;;;;;;12.25;8.18;;;;;;;;;;4401016;32;20230;-80
2022/08/15 07:41:11;;;;;;;9.77;7.43;;;;;;;;;;4399647;32;20684;-81
2022/08/15 07:43:38;;;;;;;8.90;8.00;;;;;;;;;;4401565;32;20299;-80
2022/08/15 07:46:10;;;;;;;15.25;7.95;;;;;;;;;;4403870;32;20251;-81
2022/08/15 07:48:36;;;;;;;13.25;7.65;;;;;;;;;;4402684;32;20271;-81
2022/08/15 07:51:18;;;;;;;20.73;7.85;;;;;;;;;;4402587;32;20197;-82
2022/08/15 07:53:50;;;;;;;13.43;8.00;;;;;;;;;;4403769;32;20210;-80
2022/08/15 07:56:17;;;;;;;10.30;8.15;;;;;;;;;;4403936;32;20225;-81
2022/08/15 07:58:44;;;;;;;9.30;8.38;;;;;;;;;;4403373;32;20236;-79
2022/08/15 08:01:16;;;;;;;12.70;8.10;;;;;;;;;;4403876;32;20198;-83
2022/08/15 08:03:46;;;;;;;14.00;8.27;;;;;;;;;;4403039;32;20724;-82
2022/08/15 08:06:12;;;;;;;10.20;9.18;;;;;;;;;;4404028;32;20198;-80
2022/08/15 08:08:54;;;;;;;16.42;10.07;;;;;;;;;;4403257;32;20392;-80
2022/08/15 08:11:48;;;;;;;12.25;10.88;;;;;;;;;;4403699;32;20635;-80
2022/08/15 08:14:23;;;;;;;12.55;9.38;;;;;;;;;;4403165;32;20279;-81
2022/08/15 08:16:56;;;;;;;11.63;8.50;;;;;;;;;;4402138;32;20765;-80
2022/08/15 08:19:57;;;;;;;13.18;11.40;;;;;;;;;;4403451;32;20218;-81
2022/08/15 08:22:23;;;;;;;10.48;9.10;;;;;;;;;;4340660;33;20230;-80
2022/08/15 08:25:22;;;;;;;13.48;11.38;;;;;;;;;;4391165;32;20298;-80
2022/08/15 08:27:47;;;;;;;15.63;10.57;;;;;;;;;;4403523;32;20322;-80
2022/08/15 08:30:21;;;;;;;14.02;11.20;;;;;;;;;;4403125;32;20320;-80
2022/08/15 08:33:04;;;;;;;11.40;10.35;;;;;;;;;;4402273;32;20216;-80
2022/08/15 08:35:52;;;;;;;13.32;11.80;;;;;;;;;;4403457;32;20342;-80
2022/08/15 08:38:53;;;;;;;15.23;11.12;;;;;;;;;;4402967;32;20222;-81
2022/08/15 08:41:37;;;;;;;12.30;9.77;;;;;;;;;;4401752;32;20317;-80
2022/08/15 08:44:34;;;;;;;12.82;10.65;;;;;;;;;;4403156;32;20225;-80
2022/08/15 08:47:37;;;;;;;12.52;10.93;;;;;;;;;;4377084;32;20217;-79
2022/08/15 08:50:17;;;;;;;12.57;11.27;;;;;;;;;;4403188;32;20229;-81
2022/08/15 08:53:01;;;;;;;14.50;12.40;;;;;;;;;;4406767;32;20267;-80
2022/08/15 08:55:41;;;;;;;17.77;12.32;;;;;;;;;;4408769;32;20751;-81
2022/08/15 08:58:12;;;;;;;16.33;12.52;;;;;;;;;;4410870;32;20229;-80
2022/08/15 09:00:42;;;;;;;18.05;14.90;;;;;;;;;;4408905;32;20700;-78
2022/08/15 09:03:14;;;;;;;14.15;12.65;;;;;;;;;;4402904;32;20316;-81
2022/08/15 09:05:53;;;;;;;18.35;14.75;;;;;;;;;;4402536;32;20646;-81
2022/08/15 09:08:51;;;;;;;19.10;13.68;;;;;;;;;;4400629;32;20257;-81
2022/08/15 09:11:43;;;;;;;15.85;13.25;;;;;;;;;;4397557;32;20589;-81
2022/08/15 09:14:17;;;;;;;14.85;13.27;;;;;;;;;;4390052;32;20893;-81
2022/08/15 09:16:44;;;;;;;16.62;14.35;;;;;;;;;;4402671;32;20232;-81
2022/08/15 09:19:19;;;;;;;18.33;14.95;;;;;;;;;;4401580;32;20702;-82
2022/08/15 09:21:48;;;;;;;14.82;13.30;;;;;;;;;;4402281;32;20240;-81
2022/08/15 09:24:16;;;;;;;19.48;14.82;;;;;;;;;;4400247;32;20279;-80
2022/08/15 09:27:05;;;;;;;19.30;14.95;;;;;;;;;;4400490;32;20241;-80
2022/08/15 09:29:34;;;;;;;20.50;14.57;;;;;;;;;;4401457;32;20267;-80
2022/08/15 09:32:29;;;;;;;17.05;15.32;;;;;;;;;;4400133;32;20248;-80
2022/08/15 09:35:09;;;;;;;16.48;14.77;;;;;;;;;;4401484;32;20281;-80
2022/08/15 09:38:05;;;;;;;19.55;14.73;;;;;;;;;;4401244;32;20240;-81
2022/08/15 09:40:39;;;;;;;16.10;14.40;;;;;;;;;;4401526;32;20201;-80
2022/08/15 09:43:25;;;;;;;23.27;16.58;;;;;;;;;;4401853;32;20200;-81
2022/08/15 09:46:05;;;;;;;18.67;15.32;;;;;;;;;;4402143;32;20217;-81
2022/08/15 09:49:25;;;;;;;21.42;16.42;;;;;;;;;;4401304;32;20213;-82
2022/08/15 09:52:09;;;;;;;21.17;16.73;;;;;;;;;;4384374;32;20233;-81
2022/08/15 09:54:46;;;;;;;19.80;17.35;;;;;;;;;;4401752;32;20214;-82
2022/08/15 09:57:38;;;;;;;21.00;16.52;;;;;;;;;;4400934;32;20714;-82
2022/08/15 10:00:03;;;;;;;18.10;16.20;;;;;;;;;;4401651;32;20253;-81
2022/08/15 10:02:32;;;;;;;18.25;16.33;;;;;;;;;;4401562;32;20197;-82
2022/08/15 10:04:58;;;;;;;25.40;15.75;;;;;;;;;;4401600;32;20323;-81
2022/08/15 10:07:51;;;;;;;18.02;15.43;;;;;;;;;;4401865;32;20221;-82
2022/08/15 10:10:21;;;;;;;21.37;16.55;;;;;;;;;;4386266;32;20435;-82
2022/08/15 10:13:25;;;;;;;19.77;17.75;;;;;;;;;;4386448;32;20551;-81
2022/08/15 10:15:53;;;;;;;17.67;16.02;;;;;;;;;;4400413;32;20247;-82
2022/08/15 10:18:28;;;;;;;17.48;15.77;;;;;;;;;;4400509;32;20699;-83
2022/08/15 10:21:16;;;;;;;21.05;15.45;;;;;;;;;;4402953;32;20217;-81
2022/08/15 10:23:48;;;;;;;18.00;16.30;;;;;;;;;;4402997;32;20189;-82
2022/08/15 10:26:19;;;;;;;19.98;17.95;;;;;;;;;;4404252;32;20271;-82
2022/08/15 10:29:08;;;;;;;20.10;18.00;;;;;;;;;;4402661;32;20300;-81
2022/08/15 10:31:42;;;;;;;22.33;18.37;;;;;;;;;;4401151;32;20246;-82
2022/08/15 10:34:18;;;;;;;18.58;16.62;;;;;;;;;;4401708;32;20346;-82
2022/08/15 10:37:09;;;;;;;19.67;17.58;;;;;;;;;;4401098;32;20388;-82
2022/08/15 10:40:01;;;;;;;20.27;18.35;;;;;;;;;;4400659;32;20232;-81
2022/08/15 10:42:38;;;;;;;18.85;16.83;;;;;;;;;;4400048;32;20654;-80
2022/08/15 10:45:36;;;;;;;21.52;18.87;;;;;;;;;;4400642;32;20272;-81
2022/08/15 10:48:38;;;;;;;20.50;17.37;;;;;;;;;;4401800;32;20197;-80
2022/08/15 10:51:22;;;;;;;20.70;18.33;;;;;;;;;;4401410;32;20241;-81
2022/08/15 10:54:10;;;;;;;21.52;19.23;;;;;;;;;;4403889;32;20292;-85
2022/08/15 10:56:40;;;;;;;24.70;20.27;;;;;;;;;;4409703;32;20290;-85
2022/08/15 10:59:15;;;;;;;22.27;19.95;;;;;;;;;;4402121;32;20250;-84
2022/08/15 11:01:43;;;;;;;22.62;20.20;;;;;;;;;;4403349;32;20243;-82
2022/08/15 11:04:37;;;;;;;26.42;20.48;;;;;;;;;;4400702;32;20295;-85
2022/08/15 11:07:34;;;;;;;23.95;19.50;;;;;;;;;;4402150;32;20566;-84
2022/08/15 11:10:03;;;;;;;20.35;18.23;;;;;;;;;;4373675;32;20238;-86
2022/08/15 11:12:34;;;;;;;23.35;20.85;;;;;;;;;;4386065;32;20289;-87
2022/08/15 11:15:15;;;;;;;23.10;20.73;;;;;;;;;;4394304;32;20303;-87
2022/08/15 11:17:45;;;;;;;19.75;17.70;;;;;;;;;;4385921;32;20583;-87
2022/08/15 11:20:17;;;;;;;20.98;18.83;;;;;;;;;;4399956;32;20205;-89
2022/08/15 11:22:58;;;;;;;20.65;18.55;;;;;;;;;;4404006;32;20567;-86
2022/08/15 11:25:28;;;;;;;21.50;17.55;;;;;;;;;;4401570;32;20229;-86
2022/08/15 11:28:20;;;;;;;25.77;18.62;;;;;;;;;;4401522;32;20197;-84
2022/08/15 11:30:47;;;;;;;20.88;18.45;;;;;;;;;;4402101;32;20260;-81
2022/08/15 11:33:34;;;;;;;18.73;16.98;;;;;;;;;;4397503;32;20206;-86
2022/08/15 11:36:13;;;;;;;20.05;17.95;;;;;;;;;;4394899;32;20214;-85
2022/08/15 11:38:50;;;;;;;22.83;19.83;;;;;;;;;;4399968;32;20296;-84
2022/08/15 11:41:47;;;;;;;18.95;16.15;;;;;;;;;;4399523;32;20248;-86
2022/08/15 11:44:13;;;;;;;21.00;17.67;;;;;;;;;;4397871;32;20226;-83
2022/08/15 11:46:39;;;;;;;24.05;18.60;;;;;;;;;;4400816;32;20268;-84
2022/08/15 11:49:09;;;;;;;20.73;18.70;;;;;;;;;;4400633;32;20206;-82
2022/08/15 11:51:40;;;;;;;23.95;17.05;;;;;;;;;;4401227;32;20350;-82
2022/08/15 11:54:11;;;;;;;20.27;18.12;;;;;;;;;;4401571;32;20217;-83
2022/08/15 11:56:56;;;;;;;23.38;16.30;;;;;;;;;;4401071;32;20225;-80
2022/08/15 11:59:26;;;;;;;18.58;16.65;;;;;;;;;;4400559;32;20225;-86
2022/08/15 12:02:27;;;;;;;20.12;17.90;;;;;;;;;;4400960;32;20666;-84
2022/08/15 12:04:53;;;;;;;24.27;17.62;;;;;;;;;;4401057;32;20216;-85
2022/08/15 12:07:30;;;;;;;22.33;16.70;;;;;;;;;;4400189;32;20234;-81
2022/08/15 12:10:04;;;;;;;16.98;15.25;;;;;;;;;;4399226;32;20213;-82
2022/08/15 12:12:39;;;;;;;20.05;16.85;;;;;;;;;;4399261;32;20285;-82
2022/08/15 12:15:21;;;;;;;18.73;16.83;;;;;;;;;;4398855;32;20240;-82
2022/08/15 12:18:18;;;;;;;19.37;17.25;;;;;;;;;;4384379;32;20228;-82
2022/08/15 12:21:07;;;;;;;19.20;17.15;;;;;;;;;;4384205;32;20233;-77
2022/08/15 12:23:47;;;;;;;22.87;19.33;;;;;;;;;;4385340;32;20643;-80
2022/08/15 12:26:20;;;;;;;19.90;17.08;;;;;;;;;;4389148;32;20252;-83
2022/08/15 12:28:46;;;;;;;18.75;16.75;;;;;;;;;;4399160;32;20248;-80
2022/08/15 12:31:23;;;;;;;20.35;18.25;;;;;;;;;;4400333;32;20265;-82
2022/08/15 12:34:00;;;;;;;19.83;16.90;;;;;;;;;;4399049;32;20257;-77
2022/08/15 12:36:27;;;;;;;20.55;18.27;;;;;;;;;;4387013;32;20222;-86
2022/08/15 12:38:53;;;;;;;20.17;18.08;;;;;;;;;;4387836;32;20241;-87
2022/08/15 12:41:19;;;;;;;18.52;16.73;;;;;;;;;;4387785;32;20282;-87
2022/08/15 12:43:44;;;;;;;24.67;17.25;;;;;;;;;;4399417;32;20214;-87
2022/08/15 12:46:10;;;;;;;22.33;17.45;;;;;;;;;;4404183;32;20217;-87
2022/08/15 12:48:39;;;;;;;19.65;17.55;;;;;;;;;;4403463;32;20229;-87
2022/08/15 12:51:07;;;;;;;19.08;17.10;;;;;;;;;;4403952;32;20563;-79
2022/08/15 12:53:33;;;;;;;20.27;17.67;;;;;;;;;;4403157;32;20303;-85
2022/08/15 12:55:59;;;;;;;19.55;17.50;;;;;;;;;;4401664;32;20794;-82
2022/08/15 12:58:26;;;;;;;19.02;17.10;;;;;;;;;;4400750;32;20267;-87
2022/08/15 13:00:57;;;;;;;22.10;17.27;;;;;;;;;;4403069;32;20527;-79
2022/08/15 13:03:28;;;;;;;18.60;16.60;;;;;;;;;;4388682;32;20351;-79
2022/08/15 13:06:31;;;;;;;19.23;17.08;;;;;;;;;;4401286;32;20408;-79
2022/08/15 13:08:56;;;;;;;17.33;15.48;;;;;;;;;;4370890;32;20473;-81
2022/08/15 13:11:22;;;;;;;19.17;17.17;;;;;;;;;;4402460;32;20197;-81
2022/08/15 13:13:51;;;;;;;19.30;16.23;;;;;;;;;;4402594;32;20685;-79
2022/08/15 13:16:17;;;;;;;23.27;16.25;;;;;;;;;;4402541;32;20321;-78
2022/08/15 13:18:43;;;;;;;20.60;17.50;;;;;;;;;;4400962;32;20273;-81
2022/08/15 13:23:53;;;;;;;21.45;18.17;;;;;;;;;;4402104;32;20283;-77
2022/08/15 13:26:22;;;;;;;23.52;17.77;;;;;;;;;;4402333;32;20249;-80
2022/08/15 13:28:50;;;;;;;19.37;17.15;;;;;;;;;;4402209;32;20326;-81
2022/08/15 13:31:17;;;;;;;28.85;19.30;;;;;;;;;;4402497;32;20693;-77
2022/08/15 13:33:44;;;;;;;19.50;17.30;;;;;;;;;;4402041;32;20230;-78
2022/08/15 13:36:14;;;;;;;19.50;16.92;;;;;;;;;;4402372;32;20317;-80
2022/08/15 13:38:46;;;;;;;27.10;17.85;;;;;;;;;;4400203;32;20308;-79
2022/08/15 13:41:13;;;;;;;29.70;18.87;;;;;;;;;;4401526;32;20251;-78
2022/08/15 13:43:44;;;;;;;19.55;16.77;;;;;;;;;;4400547;32;20549;-78
2022/08/15 13:46:12;;;;;;;21.33;18.33;;;;;;;;;;4402202;32;20615;-79
2022/08/15 13:48:46;;;;;;;22.67;19.12;;;;;;;;;;4400815;32;20298;-81
2022/08/15 13:51:19;;;;;;;22.25;17.45;;;;;;;;;;4402218;32;20328;-79
2022/08/15 13:53:48;;;;;;;18.70;16.50;;;;;;;;;;4402155;32;20226;-79
2022/08/15 13:56:15;;;;;;;23.20;17.25;;;;;;;;;;4402486;32;20190;-88
2022/08/15 13:58:41;;;;;;;18.33;16.42;;;;;;;;;;4402755;32;20312;-87
2022/08/15 14:01:10;;;;;;;19.90;17.80;;;;;;;;;;4402416;32;20197;-81
2022/08/15 14:03:38;;;;;;;21.40;16.65;;;;;;;;;;4400535;32;20287;-77
2022/08/15 14:06:04;;;;;;;22.55;19.60;;;;;;;;;;4401909;32;20206;-82
2022/08/15 14:08:30;;;;;;;29.20;18.40;;;;;;;;;;4402473;32;20736;-87
2022/08/15 14:10:57;;;;;;;19.95;15.77;;;;;;;;;;4401565;32;20658;-85
2022/08/15 14:13:22;;;;;;;15.63;14.10;;;;;;;;;;4401810;32;20437;-86
2022/08/15 14:16:06;;;;;;;14.07;12.35;;;;;;;;;;4401084;32;20324;-86
2022/08/15 14:18:35;;;;;;;15.77;11.95;;;;;;;;;;4401625;32;20233;-86
2022/08/15 14:21:04;;;;;;;14.35;12.90;;;;;;;;;;4402194;32;20276;-85
2022/08/15 14:23:30;;;;;;;19.42;14.20;;;;;;;;;;4401344;32;20251;-81
2022/08/15 14:25:56;;;;;;;17.75;13.57;;;;;;;;;;4401076;32;20260;-86
2022/08/15 14:28:22;;;;;;;16.30;13.50;;;;;;;;;;4401562;32;20237;-80
2022/08/15 14:30:48;;;;;;;17.00;13.57;;;;;;;;;;4401578;32;20333;-80
2022/08/15 14:33:13;;;;;;;15.18;13.68;;;;;;;;;;4401308;32;20538;-85
2022/08/15 14:35:40;;;;;;;16.42;14.73;;;;;;;;;;4401170;32;20354;-81
2022/08/15 14:38:07;;;;;;;16.25;14.50;;;;;;;;;;4401027;32;20587;-80
2022/08/15 14:40:36;;;;;;;19.75;14.38;;;;;;;;;;4400270;32;20218;-82
2022/08/15 14:43:04;;;;;;;19.15;14.38;;;;;;;;;;4399966;32;20222;-81
2022/08/15 14:45:35;;;;;;;16.27;14.57;;;;;;;;;;4402181;32;20230;-85
2022/08/15 14:48:03;;;;;;;15.85;13.73;;;;;;;;;;4400547;32;20279;-81
2022/08/15 14:50:29;;;;;;;19.25;15.82;;;;;;;;;;4401252;32;20631;-81
2022/08/15 14:52:56;;;;;;;17.25;15.20;;;;;;;;;;4400530;32;20213;-81
2022/08/15 14:55:21;;;;;;;21.92;16.25;;;;;;;;;;4400115;32;20922;-85
2022/08/15 14:57:48;;;;;;;17.10;15.30;;;;;;;;;;4401435;32;20283;-81
2022/08/15 15:00:16;;;;;;;21.80;19.50;;;;;;;;;;4400114;32;20584;-81
2022/08/15 15:02:46;;;;;;;21.00;18.20;;;;;;;;;;4400017;32;20279;-84
2022/08/15 15:05:12;;;;;;;24.75;17.37;;;;;;;;;;4401316;32;20260;-83
2022/08/15 15:07:38;;;;;;;21.62;17.65;;;;;;;;;;4388071;32;20229;-85
2022/08/15 15:10:06;;;;;;;24.85;16.92;;;;;;;;;;4402406;32;20220;-85